Time;durP1;ratioP1;P1;durP2;ratioP2;P2;SDS_P1;SDS_P2;PMS_P1;PMS_P2;Temp;Humidity;BMP_temperature;BMP_pressure;BME280_temperature;BME280_humidity;BME280_pressure;Samples;Min_cycle;Max_cycle;Signal;HPM_P1;HPM_P2
2023/09/14 00:00:53;;;;;;;0.85;0.50;;;;;;;;;;5024173;28;20518;-61
2023/09/14 00:03:20;;;;;;;0.77;0.50;;;;;;;;;;5025329;28;20099;-61
2023/09/14 00:05:47;;;;;;;0.38;0.38;;;;;;;;;;5020392;28;20043;-61
2023/09/14 00:08:13;;;;;;;0.32;0.30;;;;;;;;;;5023546;28;20129;-60
2023/09/14 00:10:40;;;;;;;0.50;0.38;;;;;;;;;;5024838;28;20041;-61
2023/09/14 00:13:06;;;;;;;1.00;0.73;;;;;;;;;;5024888;28;20120;-61
2023/09/14 00:15:33;;;;;;;0.75;0.50;;;;;;;;;;5024345;28;20465;-61
2023/09/14 00:17:59;;;;;;;0.32;0.32;;;;;;;;;;5025240;28;20052;-60
2023/09/14 00:20:26;;;;;;;0.30;0.30;;;;;;;;;;5024891;28;20045;-60
2023/09/14 00:22:54;;;;;;;0.63;0.47;;;;;;;;;;5023844;28;20033;-61
2023/09/14 00:25:21;;;;;;;1.33;0.75;;;;;;;;;;5025083;28;20077;-60
2023/09/14 00:27:51;;;;;;;0.65;0.50;;;;;;;;;;5024614;28;20120;-61
2023/09/14 00:30:18;;;;;;;1.13;0.30;;;;;;;;;;5020324;28;20037;-61
2023/09/14 00:32:44;;;;;;;1.10;0.60;;;;;;;;;;5023676;28;20038;-60
2023/09/14 00:35:11;;;;;;;1.02;0.60;;;;;;;;;;5022759;28;20037;-61
2023/09/14 00:37:37;;;;;;;0.43;0.40;;;;;;;;;;5022005;28;20040;-61
2023/09/14 00:40:07;;;;;;;0.73;0.50;;;;;;;;;;5024219;28;20049;-61
2023/09/14 00:42:41;;;;;;;0.40;0.40;;;;;;;;;;5023223;28;20037;-61
2023/09/14 00:45:13;;;;;;;0.45;0.32;;;;;;;;;;5025002;28;20043;-61
2023/09/14 00:47:40;;;;;;;0.60;0.50;;;;;;;;;;5024513;28;20135;-62
2023/09/14 00:50:07;;;;;;;0.52;0.52;;;;;;;;;;5022692;28;20089;-60
2023/09/14 00:52:34;;;;;;;0.80;0.60;;;;;;;;;;5021947;28;20056;-60
2023/09/14 00:55:01;;;;;;;0.82;0.52;;;;;;;;;;5024703;28;20335;-60
2023/09/14 00:57:27;;;;;;;0.77;0.60;;;;;;;;;;5023046;28;20039;-60
2023/09/14 00:59:53;;;;;;;1.35;0.55;;;;;;;;;;5024457;28;20034;-61
2023/09/14 01:02:20;;;;;;;1.02;0.60;;;;;;;;;;5024517;28;20046;-60
2023/09/14 01:04:46;;;;;;;0.47;0.43;;;;;;;;;;5023724;28;20584;-60
2023/09/14 01:07:15;;;;;;;0.80;0.60;;;;;;;;;;5025017;28;20060;-61
2023/09/14 01:09:41;;;;;;;0.50;0.45;;;;;;;;;;5021611;28;20095;-60
2023/09/14 01:12:08;;;;;;;0.70;0.45;;;;;;;;;;5023837;28;20521;-60
2023/09/14 01:14:40;;;;;;;0.80;0.40;;;;;;;;;;5024712;28;20045;-61
2023/09/14 01:17:14;;;;;;;0.30;0.30;;;;;;;;;;5024488;28;20651;-61
2023/09/14 01:19:50;;;;;;;0.40;0.22;;;;;;;;;;5022488;28;20033;-60
2023/09/14 01:22:16;;;;;;;0.40;0.40;;;;;;;;;;5023993;28;20046;-60
2023/09/14 01:25:04;;;;;;;0.50;0.40;;;;;;;;;;5022461;28;20030;-60
2023/09/14 01:27:30;;;;;;;0.85;0.50;;;;;;;;;;5024594;28;20049;-60
2023/09/14 01:29:58;;;;;;;1.65;0.32;;;;;;;;;;5023921;28;20076;-61
2023/09/14 01:32:25;;;;;;;0.40;0.40;;;;;;;;;;5023990;28;20049;-60
2023/09/14 01:34:51;;;;;;;0.40;0.40;;;;;;;;;;5023810;28;20282;-61
2023/09/14 01:37:18;;;;;;;0.40;0.40;;;;;;;;;;5024257;28;20153;-60
2023/09/14 01:39:45;;;;;;;0.75;0.38;;;;;;;;;;5023275;28;20117;-60
2023/09/14 01:42:11;;;;;;;0.85;0.40;;;;;;;;;;5024871;28;20048;-60
2023/09/14 01:44:38;;;;;;;0.80;0.30;;;;;;;;;;5024494;28;20049;-60
2023/09/14 01:47:04;;;;;;;0.65;0.40;;;;;;;;;;5023368;28;20084;-60
2023/09/14 01:49:30;;;;;;;0.98;0.52;;;;;;;;;;5023816;28;20057;-61
2023/09/14 01:51:56;;;;;;;0.50;0.40;;;;;;;;;;5024145;28;20083;-60
2023/09/14 01:54:22;;;;;;;0.40;0.30;;;;;;;;;;5022990;28;20554;-60
2023/09/14 01:56:49;;;;;;;0.80;0.30;;;;;;;;;;5023789;28;20042;-60
2023/09/14 01:59:15;;;;;;;0.43;0.22;;;;;;;;;;5024125;28;20541;-60
2023/09/14 02:01:41;;;;;;;0.32;0.32;;;;;;;;;;5024046;28;20123;-60
2023/09/14 02:04:07;;;;;;;1.58;0.28;;;;;;;;;;5023770;28;20506;-60
2023/09/14 02:06:33;;;;;;;0.82;0.30;;;;;;;;;;5024029;28;20068;-60
2023/09/14 02:08:59;;;;;;;0.30;0.30;;;;;;;;;;5024796;28;20045;-60
2023/09/14 02:11:25;;;;;;;0.30;0.30;;;;;;;;;;5026188;28;20488;-61
2023/09/14 02:13:51;;;;;;;0.65;0.43;;;;;;;;;;5027055;28;20467;-60
2023/09/14 02:16:17;;;;;;;0.63;0.35;;;;;;;;;;5027064;28;20075;-61
2023/09/14 02:18:44;;;;;;;0.35;0.30;;;;;;;;;;5027306;28;20037;-61
2023/09/14 02:21:11;;;;;;;0.50;0.30;;;;;;;;;;5026789;28;20056;-60
2023/09/14 02:23:37;;;;;;;0.40;0.40;;;;;;;;;;5026965;28;20045;-61
2023/09/14 02:26:03;;;;;;;0.60;0.32;;;;;;;;;;5026496;28;20140;-60
2023/09/14 02:28:29;;;;;;;0.20;0.20;;;;;;;;;;5026548;28;20382;-60
2023/09/14 02:30:55;;;;;;;0.40;0.40;;;;;;;;;;5027260;28;20171;-60
2023/09/14 02:33:21;;;;;;;0.40;0.25;;;;;;;;;;5027333;28;20057;-61
2023/09/14 02:35:50;;;;;;;0.52;0.30;;;;;;;;;;5026156;28;20041;-60
2023/09/14 02:38:17;;;;;;;1.02;0.47;;;;;;;;;;5026885;28;20545;-60
2023/09/14 02:40:43;;;;;;;0.63;0.45;;;;;;;;;;5027193;28;20049;-60
2023/09/14 02:43:09;;;;;;;0.40;0.38;;;;;;;;;;5026899;28;20049;-60
2023/09/14 02:45:35;;;;;;;0.57;0.40;;;;;;;;;;5027083;28;20046;-60
2023/09/14 02:48:01;;;;;;;0.40;0.30;;;;;;;;;;5026891;28;20541;-60
2023/09/14 02:50:27;;;;;;;0.30;0.30;;;;;;;;;;5026453;28;20048;-60
2023/09/14 02:52:53;;;;;;;0.47;0.30;;;;;;;;;;5026460;28;20461;-60
2023/09/14 02:55:19;;;;;;;0.55;0.32;;;;;;;;;;5027064;28;20045;-61
2023/09/14 02:57:45;;;;;;;0.38;0.38;;;;;;;;;;5025488;28;20123;-61
2023/09/14 03:00:17;;;;;;;0.93;0.70;;;;;;;;;;5027296;28;20096;-60
2023/09/14 03:02:43;;;;;;;0.60;0.60;;;;;;;;;;5023266;28;20049;-60
2023/09/14 03:05:10;;;;;;;0.30;0.30;;;;;;;;;;5025608;28;20414;-60
2023/09/14 03:07:36;;;;;;;0.30;0.25;;;;;;;;;;5026634;28;20041;-60
2023/09/14 03:10:03;;;;;;;0.50;0.43;;;;;;;;;;5026322;28;20120;-61
2023/09/14 03:12:29;;;;;;;0.47;0.40;;;;;;;;;;5026108;28;20048;-60
2023/09/14 03:14:55;;;;;;;0.38;0.30;;;;;;;;;;5025815;28;20045;-60
2023/09/14 03:17:21;;;;;;;0.93;0.40;;;;;;;;;;5025934;28;20049;-61
2023/09/14 03:19:48;;;;;;;1.00;0.70;;;;;;;;;;5025552;28;20041;-60
2023/09/14 03:22:15;;;;;;;0.45;0.40;;;;;;;;;;5026391;28;20076;-60
2023/09/14 03:24:41;;;;;;;0.63;0.60;;;;;;;;;;5025910;28;20037;-60
2023/09/14 03:27:06;;;;;;;0.63;0.63;;;;;;;;;;5026843;28;20440;-61
2023/09/14 03:29:33;;;;;;;1.25;0.40;;;;;;;;;;5026398;28;20041;-60
2023/09/14 03:32:00;;;;;;;1.00;0.57;;;;;;;;;;5025337;28;20052;-60
2023/09/14 03:34:26;;;;;;;1.02;0.90;;;;;;;;;;5025888;28;20099;-60
2023/09/14 03:36:52;;;;;;;1.42;0.65;;;;;;;;;;5025647;28;20320;-60
2023/09/14 03:39:18;;;;;;;0.82;0.57;;;;;;;;;;5024719;28;20085;-60
2023/09/14 03:41:45;;;;;;;0.88;0.47;;;;;;;;;;5024427;28;20037;-61
2023/09/14 03:44:11;;;;;;;0.60;0.47;;;;;;;;;;5022910;28;20542;-61
2023/09/14 03:46:37;;;;;;;0.73;0.50;;;;;;;;;;5024792;28;20037;-61
2023/09/14 03:49:06;;;;;;;1.02;0.55;;;;;;;;;;5025432;28;20061;-60
2023/09/14 03:51:32;;;;;;;0.40;0.40;;;;;;;;;;5025973;28;20605;-60
2023/09/14 03:53:58;;;;;;;0.63;0.40;;;;;;;;;;5024490;28;20657;-60
2023/09/14 03:56:24;;;;;;;0.93;0.60;;;;;;;;;;5025920;28;20041;-60
2023/09/14 03:58:50;;;;;;;0.88;0.70;;;;;;;;;;5025153;28;20084;-60
2023/09/14 04:01:16;;;;;;;0.63;0.63;;;;;;;;;;5023886;28;20571;-61
2023/09/14 04:03:42;;;;;;;0.65;0.63;;;;;;;;;;5025896;28;20095;-61
2023/09/14 04:06:08;;;;;;;1.02;0.60;;;;;;;;;;5025317;28;20041;-60
2023/09/14 04:08:34;;;;;;;1.10;0.68;;;;;;;;;;5025395;28;20697;-60
2023/09/14 04:11:01;;;;;;;0.55;0.40;;;;;;;;;;5025322;28;20033;-61
2023/09/14 04:13:34;;;;;;;0.60;0.50;;;;;;;;;;5025571;28;20041;-60
2023/09/14 04:16:02;;;;;;;0.45;0.35;;;;;;;;;;5024127;28;20128;-60
2023/09/14 04:18:29;;;;;;;0.85;0.40;;;;;;;;;;5024888;28;20124;-60
2023/09/14 04:20:55;;;;;;;0.50;0.50;;;;;;;;;;5022439;28;20041;-60
2023/09/14 04:23:21;;;;;;;0.50;0.50;;;;;;;;;;5025498;28;20092;-60
2023/09/14 04:25:48;;;;;;;0.40;0.40;;;;;;;;;;5024619;28;20037;-60
2023/09/14 04:28:15;;;;;;;0.38;0.38;;;;;;;;;;5024732;28;20076;-60
2023/09/14 04:30:45;;;;;;;0.73;0.30;;;;;;;;;;5024986;28;20067;-60
2023/09/14 04:33:15;;;;;;;0.70;0.57;;;;;;;;;;5020483;28;20048;-60
2023/09/14 04:35:41;;;;;;;0.43;0.38;;;;;;;;;;5020224;28;20053;-60
2023/09/14 04:38:08;;;;;;;0.68;0.50;;;;;;;;;;5024054;28;20045;-60
2023/09/14 04:40:37;;;;;;;0.25;0.25;;;;;;;;;;5024141;28;20041;-60
2023/09/14 04:43:04;;;;;;;0.40;0.40;;;;;;;;;;5021940;28;20701;-60
2023/09/14 04:45:30;;;;;;;0.50;0.50;;;;;;;;;;5024902;28;20620;-60
2023/09/14 04:47:56;;;;;;;1.58;0.65;;;;;;;;;;5022165;28;20508;-60
2023/09/14 04:50:22;;;;;;;0.50;0.50;;;;;;;;;;5022628;28;20049;-60
2023/09/14 04:52:48;;;;;;;1.23;0.55;;;;;;;;;;5024362;28;20045;-60
2023/09/14 04:55:15;;;;;;;0.45;0.45;;;;;;;;;;5025213;28;20486;-60
2023/09/14 04:57:41;;;;;;;1.15;0.50;;;;;;;;;;5024441;28;20048;-61
2023/09/14 05:00:09;;;;;;;0.90;0.77;;;;;;;;;;5024801;28;20040;-60
2023/09/14 05:02:35;;;;;;;0.60;0.47;;;;;;;;;;5024890;28;20041;-60
2023/09/14 05:05:02;;;;;;;0.70;0.57;;;;;;;;;;5023290;28;20091;-60
2023/09/14 05:07:28;;;;;;;0.60;0.60;;;;;;;;;;5024630;28;20065;-60
2023/09/14 05:09:54;;;;;;;0.55;0.55;;;;;;;;;;5022298;28;20072;-60
2023/09/14 05:12:20;;;;;;;0.60;0.60;;;;;;;;;;5024242;28;20052;-60
2023/09/14 05:14:46;;;;;;;0.43;0.43;;;;;;;;;;5024269;28;20037;-61
2023/09/14 05:17:12;;;;;;;0.40;0.40;;;;;;;;;;5024214;28;20053;-60
2023/09/14 05:19:42;;;;;;;0.63;0.50;;;;;;;;;;5024438;28;20034;-60
2023/09/14 05:22:09;;;;;;;0.40;0.40;;;;;;;;;;5024187;28;20434;-61
2023/09/14 05:24:35;;;;;;;0.52;0.52;;;;;;;;;;5022959;28;20043;-60
2023/09/14 05:27:01;;;;;;;0.70;0.70;;;;;;;;;;5023810;28;20049;-60
2023/09/14 05:29:27;;;;;;;1.90;0.65;;;;;;;;;;5022437;28;20040;-60
2023/09/14 05:31:53;;;;;;;0.43;0.40;;;;;;;;;;5022430;28;20042;-60
2023/09/14 05:34:19;;;;;;;1.98;0.50;;;;;;;;;;5024272;28;20102;-60
2023/09/14 05:36:45;;;;;;;0.40;0.40;;;;;;;;;;5024402;28;20042;-61
2023/09/14 05:39:12;;;;;;;0.45;0.45;;;;;;;;;;5018245;28;20490;-60
2023/09/14 05:41:40;;;;;;;0.45;0.40;;;;;;;;;;5021879;28;20049;-60
2023/09/14 05:44:10;;;;;;;0.90;0.70;;;;;;;;;;5026383;28;20050;-60
2023/09/14 05:46:36;;;;;;;0.55;0.50;;;;;;;;;;5026697;28;20049;-60
2023/09/14 05:49:02;;;;;;;0.70;0.57;;;;;;;;;;5028136;28;20084;-60
2023/09/14 05:51:28;;;;;;;0.40;0.40;;;;;;;;;;5027840;28;20739;-60
2023/09/14 05:53:55;;;;;;;0.52;0.50;;;;;;;;;;5027047;28;20488;-60
2023/09/14 05:56:21;;;;;;;0.30;0.30;;;;;;;;;;5028373;28;20064;-60
2023/09/14 05:58:47;;;;;;;0.32;0.32;;;;;;;;;;5027695;28;20049;-60
2023/09/14 06:01:14;;;;;;;0.70;0.50;;;;;;;;;;5026542;28;20045;-60
2023/09/14 06:03:40;;;;;;;0.77;0.60;;;;;;;;;;5027859;28;20133;-60
2023/09/14 06:06:06;;;;;;;0.40;0.40;;;;;;;;;;5026828;28;20037;-60
2023/09/14 06:08:32;;;;;;;0.63;0.50;;;;;;;;;;5021452;28;20045;-61
2023/09/14 06:10:58;;;;;;;0.40;0.40;;;;;;;;;;5027368;28;20037;-60
2023/09/14 06:13:24;;;;;;;0.65;0.57;;;;;;;;;;5027851;28;20822;-60
2023/09/14 06:15:50;;;;;;;0.88;0.70;;;;;;;;;;5028083;28;20084;-60
2023/09/14 06:18:17;;;;;;;0.68;0.50;;;;;;;;;;5028129;28;20041;-60
2023/09/14 06:20:44;;;;;;;0.38;0.38;;;;;;;;;;5028070;28;20108;-60
2023/09/14 06:23:10;;;;;;;0.32;0.30;;;;;;;;;;5027991;28;20124;-60
2023/09/14 06:25:36;;;;;;;0.35;0.35;;;;;;;;;;5025677;28;20678;-60
2023/09/14 06:28:02;;;;;;;0.55;0.55;;;;;;;;;;5027102;28;20064;-60
2023/09/14 06:30:28;;;;;;;0.30;0.30;;;;;;;;;;5027919;28;20171;-60
2023/09/14 06:32:54;;;;;;;0.38;0.38;;;;;;;;;;5028063;28;20510;-60
2023/09/14 06:35:20;;;;;;;0.40;0.40;;;;;;;;;;5027164;28;20052;-60
2023/09/14 06:37:46;;;;;;;1.05;0.30;;;;;;;;;;5028131;28;20049;-60
2023/09/14 06:40:14;;;;;;;0.80;0.30;;;;;;;;;;5027311;28;20637;-60
2023/09/14 06:42:41;;;;;;;0.70;0.40;;;;;;;;;;5026164;28;20049;-60
2023/09/14 06:45:07;;;;;;;0.77;0.40;;;;;;;;;;5021289;28;20042;-60
2023/09/14 06:47:33;;;;;;;0.52;0.40;;;;;;;;;;5023026;28;20211;-60
2023/09/14 06:50:00;;;;;;;0.25;0.25;;;;;;;;;;5025124;28;20045;-61
2023/09/14 06:52:26;;;;;;;0.45;0.30;;;;;;;;;;5026983;28;20162;-60
2023/09/14 06:54:52;;;;;;;0.50;0.35;;;;;;;;;;5026201;28;20041;-60
2023/09/14 06:57:18;;;;;;;0.30;0.30;;;;;;;;;;5026563;28;20182;-60
2023/09/14 06:59:44;;;;;;;0.38;0.30;;;;;;;;;;5027189;28;20506;-60
2023/09/14 07:02:10;;;;;;;0.10;0.10;;;;;;;;;;5016917;28;20060;-60
2023/09/14 07:04:36;;;;;;;0.52;0.30;;;;;;;;;;5026291;28;20641;-60
2023/09/14 07:07:02;;;;;;;0.17;0.10;;;;;;;;;;5027052;28;20041;-61
2023/09/14 07:09:28;;;;;;;0.30;0.30;;;;;;;;;;5026630;28;20550;-61
2023/09/14 07:11:54;;;;;;;0.20;0.10;;;;;;;;;;5027016;28;20378;-60
2023/09/14 07:14:20;;;;;;;0.20;0.20;;;;;;;;;;5026407;28;20060;-60
2023/09/14 07:16:47;;;;;;;0.35;0.35;;;;;;;;;;5026666;28;20802;-60
2023/09/14 07:19:15;;;;;;;0.20;0.20;;;;;;;;;;5027586;28;20045;-60
2023/09/14 07:21:41;;;;;;;0.20;0.20;;;;;;;;;;5025838;28;20052;-57
2023/09/14 07:24:08;;;;;;;0.30;0.30;;;;;;;;;;5026699;28;20052;-60
2023/09/14 07:26:40;;;;;;;0.20;0.17;;;;;;;;;;5026105;28;20413;-60
2023/09/14 07:29:07;;;;;;;0.20;0.20;;;;;;;;;;5022998;28;20508;-64
2023/09/14 07:31:34;;;;;;;0.28;0.20;;;;;;;;;;5027002;28;20224;-62
2023/09/14 07:34:00;;;;;;;0.20;0.20;;;;;;;;;;5026818;28;20049;-62
2023/09/14 07:36:26;;;;;;;1.45;0.40;;;;;;;;;;5022388;28;20091;-62
2023/09/14 07:38:52;;;;;;;0.20;0.20;;;;;;;;;;5009952;28;20037;-62
2023/09/14 07:41:18;;;;;;;0.10;0.10;;;;;;;;;;5016931;28;20124;-62
2023/09/14 07:43:44;;;;;;;0.15;0.13;;;;;;;;;;5026587;28;20549;-62
2023/09/14 07:46:10;;;;;;;0.10;0.10;;;;;;;;;;5025061;28;20041;-62
2023/09/14 07:48:36;;;;;;;0.57;0.40;;;;;;;;;;5020384;28;20080;-62
2023/09/14 07:51:02;;;;;;;2.53;1.05;;;;;;;;;;5013001;28;20400;-62
2023/09/14 07:53:28;;;;;;;1.55;0.65;;;;;;;;;;5026180;28;20126;-62
2023/09/14 07:55:54;;;;;;;1.13;0.50;;;;;;;;;;5026280;28;20056;-62
2023/09/14 07:58:20;;;;;;;0.85;0.40;;;;;;;;;;5026463;28;20212;-62
2023/09/14 08:00:47;;;;;;;1.00;0.68;;;;;;;;;;5026218;28;20172;-62
2023/09/14 08:03:14;;;;;;;0.95;0.70;;;;;;;;;;5027074;28;20045;-62
2023/09/14 08:05:40;;;;;;;1.13;0.60;;;;;;;;;;5025591;28;20052;-62
2023/09/14 08:08:06;;;;;;;1.00;0.52;;;;;;;;;;5026145;28;20478;-62
2023/09/14 08:10:32;;;;;;;0.85;0.50;;;;;;;;;;5025285;28;20044;-62
2023/09/14 08:12:59;;;;;;;0.77;0.55;;;;;;;;;;5025270;28;20743;-62
2023/09/14 08:15:26;;;;;;;0.93;0.40;;;;;;;;;;5025963;28;20064;-62
2023/09/14 08:17:52;;;;;;;0.70;0.40;;;;;;;;;;5025999;28;20048;-62
2023/09/14 08:20:18;;;;;;;0.57;0.50;;;;;;;;;;5025907;28;20037;-62
2023/09/14 08:22:44;;;;;;;1.52;0.90;;;;;;;;;;5026114;28;20163;-62
2023/09/14 08:25:10;;;;;;;0.98;0.50;;;;;;;;;;5026258;28;20057;-61
2023/09/14 08:27:40;;;;;;;0.50;0.25;;;;;;;;;;5025203;28;20045;-62
2023/09/14 08:30:08;;;;;;;1.25;0.65;;;;;;;;;;5025434;28;20037;-62
2023/09/14 08:32:34;;;;;;;0.75;0.43;;;;;;;;;;5026078;28;20076;-62
2023/09/14 08:35:19;;;;;;;0.22;0.22;;;;;;;;;;5031395;28;20052;-62
2023/09/14 08:37:45;;;;;;;1.00;0.90;;;;;;;;;;5026001;28;20045;-61
2023/09/14 08:40:13;;;;;;;0.28;0.28;;;;;;;;;;5016517;28;20046;-62
2023/09/14 08:42:41;;;;;;;0.50;0.40;;;;;;;;;;5010231;28;20558;-61
2023/09/14 08:45:10;;;;;;;0.43;0.43;;;;;;;;;;5010030;28;20038;-62
2023/09/14 08:47:37;;;;;;;0.77;0.40;;;;;;;;;;5020213;28;20061;-61
2023/09/14 08:50:04;;;;;;;0.75;0.45;;;;;;;;;;5024325;28;20048;-61
2023/09/14 08:52:30;;;;;;;0.77;0.40;;;;;;;;;;5024957;28;20049;-61
2023/09/14 08:54:56;;;;;;;1.33;0.70;;;;;;;;;;5023949;28;20044;-61
2023/09/14 08:57:24;;;;;;;0.63;0.40;;;;;;;;;;5025042;28;20041;-61
2023/09/14 08:59:51;;;;;;;0.95;0.70;;;;;;;;;;5024779;28;20120;-61
2023/09/14 09:02:18;;;;;;;2.38;0.90;;;;;;;;;;5024889;28;20565;-61
2023/09/14 09:04:45;;;;;;;1.67;0.93;;;;;;;;;;5024960;28;20041;-62
2023/09/14 09:07:11;;;;;;;2.55;1.20;;;;;;;;;;5024910;28;20041;-61
2023/09/14 09:09:38;;;;;;;1.90;1.08;;;;;;;;;;5025457;28;20041;-61
2023/09/14 09:12:04;;;;;;;1.70;0.75;;;;;;;;;;5023455;28;20033;-61
2023/09/14 09:14:33;;;;;;;0.95;0.43;;;;;;;;;;5024576;28;20100;-61
2023/09/14 09:16:59;;;;;;;1.55;0.60;;;;;;;;;;5023612;28;20076;-62
2023/09/14 09:19:28;;;;;;;0.90;0.50;;;;;;;;;;5027714;28;20096;-62
2023/09/14 09:21:54;;;;;;;0.63;0.63;;;;;;;;;;5027326;28;20091;-61
2023/09/14 09:24:27;;;;;;;1.67;0.95;;;;;;;;;;5027602;28;20528;-62
2023/09/14 09:26:54;;;;;;;1.10;0.73;;;;;;;;;;5027180;28;20551;-62
2023/09/14 09:29:22;;;;;;;2.72;0.68;;;;;;;;;;5028643;28;20476;-62
2023/09/14 09:31:50;;;;;;;1.35;0.73;;;;;;;;;;5028184;28;20112;-62
2023/09/14 09:34:20;;;;;;;2.38;1.05;;;;;;;;;;5024884;28;20520;-62
2023/09/14 09:36:46;;;;;;;1.27;0.93;;;;;;;;;;5028503;28;20038;-61
2023/09/14 09:39:13;;;;;;;0.98;0.60;;;;;;;;;;5027567;28;20043;-61
2023/09/14 09:41:39;;;;;;;1.40;0.82;;;;;;;;;;5028359;28;20106;-62
2023/09/14 09:44:09;;;;;;;1.63;0.70;;;;;;;;;;5028059;28;20038;-61
2023/09/14 09:46:35;;;;;;;1.42;0.77;;;;;;;;;;5028529;28;20041;-62
2023/09/14 09:49:17;;;;;;;1.25;0.75;;;;;;;;;;5025161;28;20050;-61
2023/09/14 09:51:50;;;;;;;1.08;0.85;;;;;;;;;;5016455;28;20045;-62
2023/09/14 09:54:19;;;;;;;1.73;0.68;;;;;;;;;;5022997;28;20053;-62
2023/09/14 09:56:45;;;;;;;1.30;0.60;;;;;;;;;;5025428;28;20033;-62
2023/09/14 09:59:14;;;;;;;0.82;0.60;;;;;;;;;;5025304;28;20037;-62
2023/09/14 10:01:41;;;;;;;0.88;0.50;;;;;;;;;;5027626;28;20080;-62
2023/09/14 10:04:08;;;;;;;1.45;0.70;;;;;;;;;;5018584;28;20107;-62
2023/09/14 10:06:34;;;;;;;1.02;0.80;;;;;;;;;;5027673;28;20128;-61
2023/09/14 10:09:06;;;;;;;1.20;0.50;;;;;;;;;;5025945;28;20068;-62
2023/09/14 10:11:32;;;;;;;0.80;0.77;;;;;;;;;;5027538;28;20044;-62
2023/09/14 10:14:02;;;;;;;1.13;0.85;;;;;;;;;;5027793;28;20370;-62
2023/09/14 10:16:28;;;;;;;1.20;0.60;;;;;;;;;;5020117;28;20037;-62
2023/09/14 10:18:55;;;;;;;0.88;0.60;;;;;;;;;;5028046;28;20560;-62
2023/09/14 10:21:24;;;;;;;0.95;0.57;;;;;;;;;;5027549;28;20536;-62
2023/09/14 10:23:51;;;;;;;3.45;0.90;;;;;;;;;;5028425;28;20624;-62
2023/09/14 10:26:17;;;;;;;0.77;0.50;;;;;;;;;;5028504;28;20116;-62
2023/09/14 10:28:43;;;;;;;1.00;0.60;;;;;;;;;;5025798;28;20095;-62
2023/09/14 10:31:11;;;;;;;0.80;0.63;;;;;;;;;;5026535;28;20095;-62
2023/09/14 10:33:37;;;;;;;0.77;0.73;;;;;;;;;;5026235;28;20037;-62
2023/09/14 10:36:04;;;;;;;2.25;0.70;;;;;;;;;;5026738;28;20108;-62
2023/09/14 10:38:34;;;;;;;1.25;0.40;;;;;;;;;;5027130;28;20042;-62
2023/09/14 10:41:00;;;;;;;0.85;0.50;;;;;;;;;;5026396;28;20068;-62
2023/09/14 10:43:26;;;;;;;6.47;1.02;;;;;;;;;;5027707;28;20080;-61
2023/09/14 10:46:00;;;;;;;1.58;0.55;;;;;;;;;;5027746;28;20041;-62
2023/09/14 10:48:29;;;;;;;0.73;0.50;;;;;;;;;;5027107;28;20053;-62
2023/09/14 10:50:57;;;;;;;1.92;1.02;;;;;;;;;;5027492;28;20460;-62
2023/09/14 10:53:24;;;;;;;1.95;0.90;;;;;;;;;;5027701;28;20133;-62
2023/09/14 10:55:50;;;;;;;2.40;0.98;;;;;;;;;;5026971;28;20096;-62
2023/09/14 10:58:16;;;;;;;1.83;0.95;;;;;;;;;;5028148;28;20445;-62
2023/09/14 11:00:42;;;;;;;1.15;1.05;;;;;;;;;;5027159;28;20095;-62
2023/09/14 11:03:09;;;;;;;2.88;1.10;;;;;;;;;;5026762;28;20595;-62
2023/09/14 11:05:48;;;;;;;2.17;0.93;;;;;;;;;;5027131;28;20116;-62
2023/09/14 11:08:16;;;;;;;1.30;0.90;;;;;;;;;;5027768;28;20530;-62
2023/09/14 11:11:00;;;;;;;1.83;0.80;;;;;;;;;;5026571;28;20045;-61
2023/09/14 11:13:30;;;;;;;2.15;1.02;;;;;;;;;;5023496;28;20037;-61
2023/09/14 11:16:13;;;;;;;1.25;0.95;;;;;;;;;;5026852;28;20421;-62
2023/09/14 11:18:45;;;;;;;3.08;1.10;;;;;;;;;;5025833;28;20045;-62
2023/09/14 11:21:11;;;;;;;;;;;;;;;;;;5027754;28;20039;-62
2023/09/14 11:23:37;;;;;;;2.25;0.90;;;;;;;;;;5026740;28;20004;-62
2023/09/14 11:26:03;;;;;;;1.80;1.17;;;;;;;;;;5027070;28;20137;-62
2023/09/14 11:28:31;;;;;;;6.20;1.33;;;;;;;;;;5026952;28;20046;-62
2023/09/14 11:30:58;;;;;;;1.58;1.05;;;;;;;;;;5026396;28;20049;-61
2023/09/14 11:33:24;;;;;;;1.20;0.90;;;;;;;;;;5027004;28;20053;-62
2023/09/14 11:35:52;;;;;;;1.10;0.98;;;;;;;;;;5027571;28;20504;-62
2023/09/14 11:38:18;;;;;;;2.80;1.27;;;;;;;;;;5025201;28;20049;-62
2023/09/14 11:40:44;;;;;;;1.52;0.80;;;;;;;;;;5022313;28;20061;-62
2023/09/14 11:43:19;;;;;;;1.58;0.82;;;;;;;;;;5026090;28;20409;-62
2023/09/14 11:45:46;;;;;;;2.35;1.10;;;;;;;;;;5026481;28;20060;-62
2023/09/14 11:48:13;;;;;;;1.23;0.85;;;;;;;;;;5019473;28;20060;-62
2023/09/14 11:50:41;;;;;;;2.85;1.10;;;;;;;;;;5026300;28;20408;-62
2023/09/14 11:53:08;;;;;;;1.88;1.20;;;;;;;;;;5026243;28;20037;-62
2023/09/14 11:55:34;;;;;;;1.48;1.02;;;;;;;;;;5026426;28;20056;-61
2023/09/14 11:58:01;;;;;;;1.83;1.15;;;;;;;;;;5024631;28;20049;-62
2023/09/14 12:00:36;;;;;;;1.33;1.00;;;;;;;;;;5024359;28;20121;-62
2023/09/14 12:03:03;;;;;;;1.95;1.27;;;;;;;;;;5025971;28;20041;-61
2023/09/14 12:05:29;;;;;;;1.73;0.95;;;;;;;;;;5008828;28;20056;-61
2023/09/14 12:07:55;;;;;;;1.38;1.05;;;;;;;;;;5012611;28;20482;-62
2023/09/14 12:10:23;;;;;;;1.08;0.98;;;;;;;;;;5025457;28;20474;-61
2023/09/14 12:12:49;;;;;;;1.10;0.93;;;;;;;;;;5022477;28;20041;-62
2023/09/14 12:15:19;;;;;;;1.02;0.85;;;;;;;;;;5025748;28;20041;-62
2023/09/14 12:17:52;;;;;;;2.67;1.15;;;;;;;;;;5026306;28;20088;-62
2023/09/14 12:20:19;;;;;;;0.90;0.70;;;;;;;;;;5025064;28;20037;-61
2023/09/14 12:22:45;;;;;;;1.35;1.10;;;;;;;;;;5025486;28;20116;-62
2023/09/14 12:25:13;;;;;;;1.98;1.08;;;;;;;;;;5024858;28;20120;-62
2023/09/14 12:27:39;;;;;;;1.30;1.10;;;;;;;;;;5020431;28;20045;-62
2023/09/14 12:30:07;;;;;;;1.52;1.10;;;;;;;;;;5024648;28;20437;-62
2023/09/14 12:32:34;;;;;;;1.42;1.02;;;;;;;;;;5019331;28;20417;-61
2023/09/14 12:35:01;;;;;;;1.40;1.05;;;;;;;;;;5021925;28;20119;-62
2023/09/14 12:37:27;;;;;;;1.13;0.95;;;;;;;;;;5024986;28;20064;-62
2023/09/14 12:39:54;;;;;;;1.40;0.88;;;;;;;;;;5024780;28;20087;-62
2023/09/14 12:42:20;;;;;;;2.30;1.02;;;;;;;;;;5024862;28;20043;-62
2023/09/14 12:44:47;;;;;;;1.80;1.30;;;;;;;;;;5025691;28;20033;-62
2023/09/14 12:47:13;;;;;;;1.45;1.10;;;;;;;;;;5013527;28;20053;-62
2023/09/14 12:49:39;;;;;;;1.88;1.23;;;;;;;;;;5025022;28;20049;-62
2023/09/14 12:52:06;;;;;;;1.40;1.08;;;;;;;;;;5024117;28;20037;-62
2023/09/14 12:54:33;;;;;;;1.75;1.17;;;;;;;;;;5024712;28;20527;-61
2023/09/14 12:56:59;;;;;;;2.30;0.90;;;;;;;;;;5023968;28;20087;-61
2023/09/14 12:59:25;;;;;;;1.27;1.00;;;;;;;;;;5025171;28;20454;-61
2023/09/14 13:01:52;;;;;;;1.05;0.90;;;;;;;;;;5021585;28;20037;-61
2023/09/14 13:04:18;;;;;;;1.35;0.98;;;;;;;;;;5025277;28;20099;-62
2023/09/14 13:06:44;;;;;;;1.23;0.85;;;;;;;;;;5024870;28;20044;-62
2023/09/14 13:09:15;;;;;;;1.38;1.25;;;;;;;;;;5020738;28;20042;-62
2023/09/14 13:11:50;;;;;;;3.33;1.23;;;;;;;;;;5013457;28;20054;-62
2023/09/14 13:14:21;;;;;;;1.45;1.00;;;;;;;;;;5014137;28;20045;-62
2023/09/14 13:16:55;;;;;;;2.30;1.40;;;;;;;;;;5020205;28;20448;-62
2023/09/14 13:19:25;;;;;;;2.05;1.42;;;;;;;;;;5021616;28;20613;-61
2023/09/14 13:21:51;;;;;;;0.68;0.68;;;;;;;;;;5023146;28;20496;-61
2023/09/14 13:24:17;;;;;;;2.05;0.85;;;;;;;;;;5020694;28;20091;-62
2023/09/14 13:26:43;;;;;;;2.35;1.10;;;;;;;;;;5022243;28;20710;-62
2023/09/14 13:29:09;;;;;;;2.22;1.40;;;;;;;;;;5021617;28;20048;-62
2023/09/14 13:31:36;;;;;;;1.02;1.00;;;;;;;;;;5022775;28;20034;-62
2023/09/14 13:34:02;;;;;;;1.75;1.38;;;;;;;;;;5019238;28;20045;-62
2023/09/14 13:36:29;;;;;;;2.25;1.55;;;;;;;;;;5019415;28;20045;-62
2023/09/14 13:38:56;;;;;;;2.03;1.30;;;;;;;;;;5020722;28;20504;-62
2023/09/14 13:41:22;;;;;;;2.03;1.40;;;;;;;;;;5021275;28;20049;-62
2023/09/14 13:43:48;;;;;;;2.08;1.30;;;;;;;;;;5024248;28;21292;-62
2023/09/14 13:46:14;;;;;;;1.95;0.90;;;;;;;;;;5020834;28;20128;-63
2023/09/14 13:48:40;;;;;;;1.30;0.88;;;;;;;;;;5021022;28;20054;-62
2023/09/14 13:51:11;;;;;;;1.55;1.10;;;;;;;;;;5020707;28;20050;-62
2023/09/14 13:53:37;;;;;;;1.67;1.23;;;;;;;;;;5024074;28;20045;-62
2023/09/14 13:56:03;;;;;;;2.08;1.40;;;;;;;;;;5020925;28;20136;-62
2023/09/14 13:58:29;;;;;;;2.15;1.45;;;;;;;;;;5020200;28;20068;-62
2023/09/14 14:00:55;;;;;;;1.67;1.13;;;;;;;;;;5019180;28;20119;-62
2023/09/14 14:03:21;;;;;;;3.22;1.42;;;;;;;;;;5023161;28;20458;-62
2023/09/14 14:05:47;;;;;;;1.27;1.10;;;;;;;;;;5020053;28;20120;-62
2023/09/14 14:08:15;;;;;;;2.10;1.00;;;;;;;;;;5022550;28;20077;-62
2023/09/14 14:10:41;;;;;;;2.72;1.13;;;;;;;;;;5016025;28;20444;-62
2023/09/14 14:13:07;;;;;;;3.15;1.70;;;;;;;;;;5021924;28;20507;-62
2023/09/14 14:15:33;;;;;;;1.45;1.13;;;;;;;;;;5023602;28;20045;-62
2023/09/14 14:17:59;;;;;;;1.98;1.25;;;;;;;;;;5020609;28;20045;-61
2023/09/14 14:20:25;;;;;;;2.03;1.20;;;;;;;;;;5016513;28;20034;-62
2023/09/14 14:22:52;;;;;;;1.00;0.90;;;;;;;;;;5021889;28;20091;-62
2023/09/14 14:25:18;;;;;;;1.85;1.20;;;;;;;;;;5020902;28;20049;-62
2023/09/14 14:27:44;;;;;;;1.40;1.00;;;;;;;;;;5012945;28;20045;-62
2023/09/14 14:30:11;;;;;;;2.88;1.70;;;;;;;;;;5022577;28;20044;-62
2023/09/14 14:32:37;;;;;;;2.35;1.20;;;;;;;;;;5021229;28;20481;-62
2023/09/14 14:35:04;;;;;;;1.08;0.98;;;;;;;;;;5026956;28;20045;-62
2023/09/14 14:37:30;;;;;;;1.65;1.30;;;;;;;;;;5022570;28;20038;-62
2023/09/14 14:39:56;;;;;;;2.60;1.70;;;;;;;;;;5023917;28;20103;-62
2023/09/14 14:42:22;;;;;;;1.45;1.20;;;;;;;;;;5024123;28;20047;-62